sensor_id;sensor_type;location;lat;lon;timestamp;P1;durP1;ratioP1;P2;durP2;ratioP2
29026;SDS011;16120;48.608;9.092;2023-05-10T00:02:46;29.90;;;0.70;;
29026;SDS011;16120;48.608;9.092;2023-05-10T00:06:41;29.70;;;0.70;;
29026;SDS011;16120;48.608;9.092;2023-05-10T00:10:36;29.90;;;0.70;;
29026;SDS011;16120;48.608;9.092;2023-05-10T00:14:32;29.57;;;0.70;;
29026;SDS011;16120;48.608;9.092;2023-05-10T00:18:28;29.47;;;0.60;;
29026;SDS011;16120;48.608;9.092;2023-05-10T00:22:23;29.60;;;0.70;;
29026;SDS011;16120;48.608;9.092;2023-05-10T00:26:18;29.90;;;0.70;;
29026;SDS011;16120;48.608;9.092;2023-05-10T00:30:14;29.80;;;0.70;;
29026;SDS011;16120;48.608;9.092;2023-05-10T00:34:10;29.80;;;0.70;;
29026;SDS011;16120;48.608;9.092;2023-05-10T00:38:06;29.80;;;0.70;;
29026;SDS011;16120;48.608;9.092;2023-05-10T00:42:01;29.60;;;0.70;;
29026;SDS011;16120;48.608;9.092;2023-05-10T00:45:56;29.67;;;0.70;;
29026;SDS011;16120;48.608;9.092;2023-05-10T00:49:53;29.43;;;0.70;;
29026;SDS011;16120;48.608;9.092;2023-05-10T00:53:49;29.43;;;0.70;;
29026;SDS011;16120;48.608;9.092;2023-05-10T00:57:44;29.50;;;0.70;;
29026;SDS011;16120;48.608;9.092;2023-05-10T01:01:39;29.70;;;0.70;;
29026;SDS011;16120;48.608;9.092;2023-05-10T01:05:36;29.47;;;0.70;;
29026;SDS011;16120;48.608;9.092;2023-05-10T01:09:31;29.60;;;0.70;;
29026;SDS011;16120;48.608;9.092;2023-05-10T01:13:30;29.57;;;0.70;;
29026;SDS011;16120;48.608;9.092;2023-05-10T01:17:26;29.47;;;0.70;;
29026;SDS011;16120;48.608;9.092;2023-05-10T01:21:26;29.57;;;0.70;;
29026;SDS011;16120;48.608;9.092;2023-05-10T01:25:35;29.53;;;0.63;;
29026;SDS011;16120;48.608;9.092;2023-05-10T01:29:40;29.57;;;0.63;;
29026;SDS011;16120;48.608;9.092;2023-05-10T01:33:41;29.43;;;0.70;;
29026;SDS011;16120;48.608;9.092;2023-05-10T01:37:41;29.60;;;0.70;;
29026;SDS011;16120;48.608;9.092;2023-05-10T01:41:40;29.70;;;0.70;;
29026;SDS011;16120;48.608;9.092;2023-05-10T01:45:38;29.60;;;0.60;;
29026;SDS011;16120;48.608;9.092;2023-05-10T01:49:39;29.50;;;0.70;;
29026;SDS011;16120;48.608;9.092;2023-05-10T01:53:34;29.53;;;0.70;;
29026;SDS011;16120;48.608;9.092;2023-05-10T01:57:32;29.67;;;0.63;;
29026;SDS011;16120;48.608;9.092;2023-05-10T02:01:28;29.50;;;0.70;;
29026;SDS011;16120;48.608;9.092;2023-05-10T02:05:25;29.50;;;0.70;;
29026;SDS011;16120;48.608;9.092;2023-05-10T02:09:21;29.57;;;0.80;;
29026;SDS011;16120;48.608;9.092;2023-05-10T02:13:18;29.60;;;0.70;;
29026;SDS011;16120;48.608;9.092;2023-05-10T02:17:13;29.47;;;0.70;;
29026;SDS011;16120;48.608;9.092;2023-05-10T02:21:10;29.30;;;0.70;;
29026;SDS011;16120;48.608;9.092;2023-05-10T02:25:06;29.27;;;0.60;;
29026;SDS011;16120;48.608;9.092;2023-05-10T02:29:01;29.50;;;0.70;;
29026;SDS011;16120;48.608;9.092;2023-05-10T02:32:57;29.23;;;0.70;;
29026;SDS011;16120;48.608;9.092;2023-05-10T02:36:55;29.00;;;0.70;;
29026;SDS011;16120;48.608;9.092;2023-05-10T02:40:50;29.07;;;0.70;;
29026;SDS011;16120;48.608;9.092;2023-05-10T02:44:46;29.07;;;0.70;;
29026;SDS011;16120;48.608;9.092;2023-05-10T02:48:42;29.60;;;0.70;;
29026;SDS011;16120;48.608;9.092;2023-05-10T02:52:40;29.50;;;0.70;;
29026;SDS011;16120;48.608;9.092;2023-05-10T02:56:39;29.00;;;0.70;;
29026;SDS011;16120;48.608;9.092;2023-05-10T03:00:35;29.33;;;0.70;;
29026;SDS011;16120;48.608;9.092;2023-05-10T03:04:31;28.97;;;0.70;;
29026;SDS011;16120;48.608;9.092;2023-05-10T03:08:27;29.30;;;0.70;;
29026;SDS011;16120;48.608;9.092;2023-05-10T03:12:24;29.07;;;0.70;;
29026;SDS011;16120;48.608;9.092;2023-05-10T03:16:22;29.27;;;0.70;;
29026;SDS011;16120;48.608;9.092;2023-05-10T03:20:21;29.40;;;0.70;;
29026;SDS011;16120;48.608;9.092;2023-05-10T03:24:20;29.30;;;0.70;;
29026;SDS011;16120;48.608;9.092;2023-05-10T03:28:16;29.27;;;0.70;;
29026;SDS011;16120;48.608;9.092;2023-05-10T03:32:12;28.97;;;0.70;;
29026;SDS011;16120;48.608;9.092;2023-05-10T03:36:08;29.17;;;0.70;;
29026;SDS011;16120;48.608;9.092;2023-05-10T03:40:07;29.30;;;0.70;;
29026;SDS011;16120;48.608;9.092;2023-05-10T03:44:03;29.10;;;0.60;;
29026;SDS011;16120;48.608;9.092;2023-05-10T03:47:58;28.83;;;0.60;;
29026;SDS011;16120;48.608;9.092;2023-05-10T03:51:53;29.00;;;0.70;;
29026;SDS011;16120;48.608;9.092;2023-05-10T03:55:50;29.20;;;0.70;;
29026;SDS011;16120;48.608;9.092;2023-05-10T03:59:45;29.30;;;0.70;;
29026;SDS011;16120;48.608;9.092;2023-05-10T04:03:40;29.27;;;0.70;;
29026;SDS011;16120;48.608;9.092;2023-05-10T04:07:35;29.10;;;0.70;;
29026;SDS011;16120;48.608;9.092;2023-05-10T04:11:32;29.10;;;0.70;;
29026;SDS011;16120;48.608;9.092;2023-05-10T04:15:27;29.17;;;0.70;;
29026;SDS011;16120;48.608;9.092;2023-05-10T04:19:22;28.97;;;0.70;;
29026;SDS011;16120;48.608;9.092;2023-05-10T04:23:18;29.40;;;0.70;;
29026;SDS011;16120;48.608;9.092;2023-05-10T04:27:14;29.27;;;0.70;;
29026;SDS011;16120;48.608;9.092;2023-05-10T04:31:09;29.30;;;0.70;;
29026;SDS011;16120;48.608;9.092;2023-05-10T04:35:05;29.13;;;0.70;;
29026;SDS011;16120;48.608;9.092;2023-05-10T04:39:00;29.10;;;0.77;;
29026;SDS011;16120;48.608;9.092;2023-05-10T04:42:57;29.02;;;0.70;;
29026;SDS011;16120;48.608;9.092;2023-05-10T04:46:52;29.27;;;0.70;;
29026;SDS011;16120;48.608;9.092;2023-05-10T04:50:47;29.10;;;0.70;;
29026;SDS011;16120;48.608;9.092;2023-05-10T04:54:42;29.10;;;0.70;;
29026;SDS011;16120;48.608;9.092;2023-05-10T04:58:39;29.30;;;0.70;;
29026;SDS011;16120;48.608;9.092;2023-05-10T05:02:34;29.37;;;0.70;;
29026;SDS011;16120;48.608;9.092;2023-05-10T05:06:29;29.50;;;0.80;;
29026;SDS011;16120;48.608;9.092;2023-05-10T05:10:24;29.57;;;0.80;;
29026;SDS011;16120;48.608;9.092;2023-05-10T05:14:21;29.40;;;0.70;;
29026;SDS011;16120;48.608;9.092;2023-05-10T05:18:16;29.10;;;0.70;;
29026;SDS011;16120;48.608;9.092;2023-05-10T05:22:11;29.23;;;0.70;;
29026;SDS011;16120;48.608;9.092;2023-05-10T05:26:06;29.40;;;0.77;;
29026;SDS011;16120;48.608;9.092;2023-05-10T05:30:03;29.37;;;0.70;;
29026;SDS011;16120;48.608;9.092;2023-05-10T05:33:59;29.57;;;0.70;;
29026;SDS011;16120;48.608;9.092;2023-05-10T05:37:54;29.40;;;0.70;;
29026;SDS011;16120;48.608;9.092;2023-05-10T05:41:49;29.53;;;0.70;;
29026;SDS011;16120;48.608;9.092;2023-05-10T05:45:46;29.50;;;0.80;;
29026;SDS011;16120;48.608;9.092;2023-05-10T05:49:41;29.23;;;0.80;;
29026;SDS011;16120;48.608;9.092;2023-05-10T05:53:36;29.70;;;0.80;;
29026;SDS011;16120;48.608;9.092;2023-05-10T05:57:31;29.70;;;0.70;;
29026;SDS011;16120;48.608;9.092;2023-05-10T06:01:28;29.60;;;0.80;;
29026;SDS011;16120;48.608;9.092;2023-05-10T06:05:23;29.40;;;0.80;;
29026;SDS011;16120;48.608;9.092;2023-05-10T06:09:18;29.60;;;0.80;;
29026;SDS011;16120;48.608;9.092;2023-05-10T06:13:14;29.33;;;0.80;;
29026;SDS011;16120;48.608;9.092;2023-05-10T06:17:12;29.70;;;0.80;;
29026;SDS011;16120;48.608;9.092;2023-05-10T06:21:07;29.50;;;0.80;;
29026;SDS011;16120;48.608;9.092;2023-05-10T06:25:03;29.47;;;0.80;;
29026;SDS011;16120;48.608;9.092;2023-05-10T06:28:58;29.53;;;0.70;;
29026;SDS011;16120;48.608;9.092;2023-05-10T06:32:55;29.60;;;0.70;;
29026;SDS011;16120;48.608;9.092;2023-05-10T06:36:50;29.87;;;0.80;;
29026;SDS011;16120;48.608;9.092;2023-05-10T06:40:45;30.17;;;0.80;;
29026;SDS011;16120;48.608;9.092;2023-05-10T06:44:41;30.17;;;0.90;;
29026;SDS011;16120;48.608;9.092;2023-05-10T06:48:38;30.07;;;0.80;;
29026;SDS011;16120;48.608;9.092;2023-05-10T06:52:33;30.07;;;0.80;;
29026;SDS011;16120;48.608;9.092;2023-05-10T06:56:30;30.07;;;0.80;;
29026;SDS011;16120;48.608;9.092;2023-05-10T07:00:27;29.63;;;0.80;;
29026;SDS011;16120;48.608;9.092;2023-05-10T07:04:26;30.03;;;0.90;;
29026;SDS011;16120;48.608;9.092;2023-05-10T07:08:23;30.20;;;0.90;;
29026;SDS011;16120;48.608;9.092;2023-05-10T07:12:19;30.27;;;0.80;;
29026;SDS011;16120;48.608;9.092;2023-05-10T07:16:14;30.33;;;0.80;;
29026;SDS011;16120;48.608;9.092;2023-05-10T07:20:11;30.50;;;0.80;;
29026;SDS011;16120;48.608;9.092;2023-05-10T07:24:06;30.33;;;0.90;;
29026;SDS011;16120;48.608;9.092;2023-05-10T07:28:01;30.37;;;0.80;;
29026;SDS011;16120;48.608;9.092;2023-05-10T07:31:57;30.47;;;0.80;;
29026;SDS011;16120;48.608;9.092;2023-05-10T07:35:53;30.30;;;0.80;;
29026;SDS011;16120;48.608;9.092;2023-05-10T07:39:49;30.27;;;0.80;;
29026;SDS011;16120;48.608;9.092;2023-05-10T07:43:44;30.45;;;0.80;;
29026;SDS011;16120;48.608;9.092;2023-05-10T07:47:39;30.50;;;0.80;;
29026;SDS011;16120;48.608;9.092;2023-05-10T07:51:36;30.50;;;0.80;;
29026;SDS011;16120;48.608;9.092;2023-05-10T07:55:31;30.57;;;0.80;;
29026;SDS011;16120;48.608;9.092;2023-05-10T07:59:26;30.60;;;0.80;;
29026;SDS011;16120;48.608;9.092;2023-05-10T08:03:22;30.77;;;0.87;;
29026;SDS011;16120;48.608;9.092;2023-05-10T08:07:18;30.70;;;0.80;;
29026;SDS011;16120;48.608;9.092;2023-05-10T08:11:13;30.80;;;0.90;;
29026;SDS011;16120;48.608;9.092;2023-05-10T08:15:09;30.97;;;1.00;;
29026;SDS011;16120;48.608;9.092;2023-05-10T08:19:04;30.97;;;0.90;;
29026;SDS011;16120;48.608;9.092;2023-05-10T08:23:01;30.97;;;0.90;;
29026;SDS011;16120;48.608;9.092;2023-05-10T08:26:56;30.93;;;0.90;;
29026;SDS011;16120;48.608;9.092;2023-05-10T08:30:51;31.00;;;0.90;;
29026;SDS011;16120;48.608;9.092;2023-05-10T08:34:47;31.07;;;0.93;;
29026;SDS011;16120;48.608;9.092;2023-05-10T08:38:43;31.10;;;0.87;;
29026;SDS011;16120;48.608;9.092;2023-05-10T08:42:39;30.70;;;0.80;;
29026;SDS011;16120;48.608;9.092;2023-05-10T08:46:34;30.47;;;0.80;;
29026;SDS011;16120;48.608;9.092;2023-05-10T08:50:31;30.67;;;0.80;;
29026;SDS011;16120;48.608;9.092;2023-05-10T08:54:30;30.90;;;0.80;;
29026;SDS011;16120;48.608;9.092;2023-05-10T08:58:26;31.00;;;0.80;;
29026;SDS011;16120;48.608;9.092;2023-05-10T09:02:21;30.90;;;0.80;;
29026;SDS011;16120;48.608;9.092;2023-05-10T09:06:18;30.77;;;0.70;;
29026;SDS011;16120;48.608;9.092;2023-05-10T09:10:14;30.73;;;0.80;;
29026;SDS011;16120;48.608;9.092;2023-05-10T09:14:10;31.20;;;0.80;;
29026;SDS011;16120;48.608;9.092;2023-05-10T09:18:06;31.20;;;0.80;;
29026;SDS011;16120;48.608;9.092;2023-05-10T09:22:01;31.00;;;0.80;;
29026;SDS011;16120;48.608;9.092;2023-05-10T09:26:07;31.13;;;0.85;;
29026;SDS011;16120;48.608;9.092;2023-05-10T09:30:02;31.40;;;0.90;;
29026;SDS011;16120;48.608;9.092;2023-05-10T09:33:57;31.37;;;0.90;;
29026;SDS011;16120;48.608;9.092;2023-05-10T09:37:53;31.03;;;0.80;;
29026;SDS011;16120;48.608;9.092;2023-05-10T09:41:50;31.00;;;0.90;;
29026;SDS011;16120;48.608;9.092;2023-05-10T09:45:45;31.47;;;0.90;;
29026;SDS011;16120;48.608;9.092;2023-05-10T09:49:43;31.53;;;0.90;;
29026;SDS011;16120;48.608;9.092;2023-05-10T09:53:38;31.47;;;1.00;;
29026;SDS011;16120;48.608;9.092;2023-05-10T09:57:35;31.67;;;1.00;;
29026;SDS011;16120;48.608;9.092;2023-05-10T10:01:30;31.17;;;0.90;;
29026;SDS011;16120;48.608;9.092;2023-05-10T10:05:28;31.63;;;1.00;;
29026;SDS011;16120;48.608;9.092;2023-05-10T10:09:23;31.83;;;1.20;;
29026;SDS011;16120;48.608;9.092;2023-05-10T10:13:20;31.43;;;1.00;;
29026;SDS011;16120;48.608;9.092;2023-05-10T10:17:15;31.20;;;0.83;;
29026;SDS011;16120;48.608;9.092;2023-05-10T10:21:12;31.03;;;0.90;;
29026;SDS011;16120;48.608;9.092;2023-05-10T10:25:08;31.30;;;0.90;;
29026;SDS011;16120;48.608;9.092;2023-05-10T10:29:08;31.10;;;0.80;;
29026;SDS011;16120;48.608;9.092;2023-05-10T10:37:40;31.10;;;0.80;;
29026;SDS011;16120;48.608;9.092;2023-05-10T10:41:38;30.77;;;0.80;;
29026;SDS011;16120;48.608;9.092;2023-05-10T10:45:38;30.80;;;0.83;;
29026;SDS011;16120;48.608;9.092;2023-05-10T10:49:37;30.73;;;0.83;;
29026;SDS011;16120;48.608;9.092;2023-05-10T10:53:33;31.20;;;0.80;;
29026;SDS011;16120;48.608;9.092;2023-05-10T10:57:31;31.07;;;0.70;;
29026;SDS011;16120;48.608;9.092;2023-05-10T11:01:32;30.97;;;0.90;;
29026;SDS011;16120;48.608;9.092;2023-05-10T11:09:40;30.57;;;0.80;;
29026;SDS011;16120;48.608;9.092;2023-05-10T11:13:39;30.53;;;0.80;;
29026;SDS011;16120;48.608;9.092;2023-05-10T11:17:36;30.40;;;0.80;;
29026;SDS011;16120;48.608;9.092;2023-05-10T11:21:43;30.30;;;0.80;;
29026;SDS011;16120;48.608;9.092;2023-05-10T11:25:41;30.27;;;0.80;;
29026;SDS011;16120;48.608;9.092;2023-05-10T11:29:36;30.30;;;0.80;;
29026;SDS011;16120;48.608;9.092;2023-05-10T11:33:36;30.37;;;0.87;;
29026;SDS011;16120;48.608;9.092;2023-05-10T11:37:37;30.77;;;1.00;;
29026;SDS011;16120;48.608;9.092;2023-05-10T11:41:32;30.33;;;0.90;;
29026;SDS011;16120;48.608;9.092;2023-05-10T11:45:28;30.17;;;0.90;;
29026;SDS011;16120;48.608;9.092;2023-05-10T11:49:24;30.27;;;0.90;;
29026;SDS011;16120;48.608;9.092;2023-05-10T11:53:20;30.50;;;1.00;;
29026;SDS011;16120;48.608;9.092;2023-05-10T11:57:17;30.33;;;0.93;;
29026;SDS011;16120;48.608;9.092;2023-05-10T12:01:13;30.30;;;0.90;;
29026;SDS011;16120;48.608;9.092;2023-05-10T12:05:09;30.50;;;1.10;;
29026;SDS011;16120;48.608;9.092;2023-05-10T12:09:05;30.17;;;1.00;;
29026;SDS011;16120;48.608;9.092;2023-05-10T12:13:01;30.00;;;0.90;;
29026;SDS011;16120;48.608;9.092;2023-05-10T12:16:56;30.00;;;0.80;;
29026;SDS011;16120;48.608;9.092;2023-05-10T12:20:53;29.80;;;0.80;;
29026;SDS011;16120;48.608;9.092;2023-05-10T12:24:49;29.87;;;0.80;;
29026;SDS011;16120;48.608;9.092;2023-05-10T12:28:45;30.17;;;0.90;;
29026;SDS011;16120;48.608;9.092;2023-05-10T12:32:40;30.27;;;0.80;;
29026;SDS011;16120;48.608;9.092;2023-05-10T12:36:39;30.63;;;1.00;;
29026;SDS011;16120;48.608;9.092;2023-05-10T12:40:34;30.37;;;0.90;;
29026;SDS011;16120;48.608;9.092;2023-05-10T12:44:29;30.37;;;0.90;;
29026;SDS011;16120;48.608;9.092;2023-05-10T12:48:25;30.27;;;1.00;;
29026;SDS011;16120;48.608;9.092;2023-05-10T12:52:21;29.90;;;0.80;;
29026;SDS011;16120;48.608;9.092;2023-05-10T12:56:16;29.80;;;0.90;;
29026;SDS011;16120;48.608;9.092;2023-05-10T13:00:12;29.70;;;0.80;;
29026;SDS011;16120;48.608;9.092;2023-05-10T13:04:07;29.80;;;0.80;;
29026;SDS011;16120;48.608;9.092;2023-05-10T13:08:04;29.90;;;1.00;;
29026;SDS011;16120;48.608;9.092;2023-05-10T13:11:59;30.10;;;1.00;;
29026;SDS011;16120;48.608;9.092;2023-05-10T13:15:54;30.23;;;1.00;;
29026;SDS011;16120;48.608;9.092;2023-05-10T13:19:50;30.00;;;0.90;;
29026;SDS011;16120;48.608;9.092;2023-05-10T13:23:46;30.13;;;0.90;;
29026;SDS011;16120;48.608;9.092;2023-05-10T13:27:41;30.30;;;0.90;;
29026;SDS011;16120;48.608;9.092;2023-05-10T13:31:37;30.20;;;0.90;;
29026;SDS011;16120;48.608;9.092;2023-05-10T13:35:32;30.30;;;0.90;;
29026;SDS011;16120;48.608;9.092;2023-05-10T13:39:28;30.40;;;0.97;;
29026;SDS011;16120;48.608;9.092;2023-05-10T13:43:24;30.40;;;0.90;;
29026;SDS011;16120;48.608;9.092;2023-05-10T13:47:19;30.25;;;0.90;;
29026;SDS011;16120;48.608;9.092;2023-05-10T13:51:14;30.40;;;0.90;;
29026;SDS011;16120;48.608;9.092;2023-05-10T13:55:10;30.40;;;1.00;;
29026;SDS011;16120;48.608;9.092;2023-05-10T13:59:06;30.27;;;0.90;;
29026;SDS011;16120;48.608;9.092;2023-05-10T14:03:01;30.40;;;1.00;;
29026;SDS011;16120;48.608;9.092;2023-05-10T14:06:56;30.20;;;0.80;;
29026;SDS011;16120;48.608;9.092;2023-05-10T14:10:54;30.00;;;0.80;;
29026;SDS011;16120;48.608;9.092;2023-05-10T14:14:49;30.10;;;0.90;;
29026;SDS011;16120;48.608;9.092;2023-05-10T14:18:45;30.10;;;0.90;;
29026;SDS011;16120;48.608;9.092;2023-05-10T14:22:40;30.10;;;0.90;;
29026;SDS011;16120;48.608;9.092;2023-05-10T14:26:36;30.00;;;0.90;;
29026;SDS011;16120;48.608;9.092;2023-05-10T14:30:32;30.27;;;0.87;;
29026;SDS011;16120;48.608;9.092;2023-05-10T14:34:27;29.97;;;0.80;;
29026;SDS011;16120;48.608;9.092;2023-05-10T14:38:22;30.20;;;0.90;;
29026;SDS011;16120;48.608;9.092;2023-05-10T14:42:19;30.40;;;0.80;;
29026;SDS011;16120;48.608;9.092;2023-05-10T14:46:14;30.13;;;0.80;;
29026;SDS011;16120;48.608;9.092;2023-05-10T14:50:09;30.17;;;0.90;;
29026;SDS011;16120;48.608;9.092;2023-05-10T14:54:05;30.43;;;0.80;;
29026;SDS011;16120;48.608;9.092;2023-05-10T14:58:03;30.47;;;0.90;;
29026;SDS011;16120;48.608;9.092;2023-05-10T15:01:58;30.40;;;0.80;;
29026;SDS011;16120;48.608;9.092;2023-05-10T15:05:53;30.17;;;0.83;;
29026;SDS011;16120;48.608;9.092;2023-05-10T15:09:49;30.20;;;0.90;;
29026;SDS011;16120;48.608;9.092;2023-05-10T15:13:46;30.20;;;0.80;;
29026;SDS011;16120;48.608;9.092;2023-05-10T15:17:41;30.00;;;0.80;;
29026;SDS011;16120;48.608;9.092;2023-05-10T15:21:42;30.20;;;0.90;;
29026;SDS011;16120;48.608;9.092;2023-05-10T15:25:37;30.10;;;0.80;;
29026;SDS011;16120;48.608;9.092;2023-05-10T15:29:34;30.10;;;0.80;;
29026;SDS011;16120;48.608;9.092;2023-05-10T15:33:29;30.27;;;0.80;;
29026;SDS011;16120;48.608;9.092;2023-05-10T15:37:24;30.17;;;0.80;;
29026;SDS011;16120;48.608;9.092;2023-05-10T15:41:19;30.30;;;0.90;;
29026;SDS011;16120;48.608;9.092;2023-05-10T15:45:16;29.90;;;0.80;;
29026;SDS011;16120;48.608;9.092;2023-05-10T15:49:11;30.10;;;0.80;;
29026;SDS011;16120;48.608;9.092;2023-05-10T15:53:06;29.97;;;0.70;;
29026;SDS011;16120;48.608;9.092;2023-05-10T15:57:02;30.00;;;0.80;;
29026;SDS011;16120;48.608;9.092;2023-05-10T16:00:58;29.80;;;0.70;;
29026;SDS011;16120;48.608;9.092;2023-05-10T16:04:53;30.00;;;0.70;;
29026;SDS011;16120;48.608;9.092;2023-05-10T16:08:49;29.77;;;0.70;;
29026;SDS011;16120;48.608;9.092;2023-05-10T16:12:44;29.80;;;0.80;;
29026;SDS011;16120;48.608;9.092;2023-05-10T16:16:40;29.90;;;0.70;;
29026;SDS011;16120;48.608;9.092;2023-05-10T16:20:36;29.67;;;0.63;;
29026;SDS011;16120;48.608;9.092;2023-05-10T16:24:31;30.03;;;0.70;;
29026;SDS011;16120;48.608;9.092;2023-05-10T16:28:26;30.00;;;0.60;;
29026;SDS011;16120;48.608;9.092;2023-05-10T16:32:23;30.17;;;0.70;;
29026;SDS011;16120;48.608;9.092;2023-05-10T16:36:18;30.07;;;0.70;;
29026;SDS011;16120;48.608;9.092;2023-05-10T16:40:15;30.10;;;0.70;;
29026;SDS011;16120;48.608;9.092;2023-05-10T16:44:11;42.17;;;0.80;;
29026;SDS011;16120;48.608;9.092;2023-05-10T16:48:07;42.73;;;0.80;;
29026;SDS011;16120;48.608;9.092;2023-05-10T16:52:02;42.37;;;0.80;;
29026;SDS011;16120;48.608;9.092;2023-05-10T16:55:59;42.43;;;0.80;;
29026;SDS011;16120;48.608;9.092;2023-05-10T16:59:55;42.27;;;0.80;;
29026;SDS011;16120;48.608;9.092;2023-05-10T17:03:51;42.38;;;0.80;;
29026;SDS011;16120;48.608;9.092;2023-05-10T17:07:46;42.17;;;0.90;;
29026;SDS011;16120;48.608;9.092;2023-05-10T17:11:42;42.17;;;0.87;;
29026;SDS011;16120;48.608;9.092;2023-05-10T17:15:37;42.13;;;0.80;;
29026;SDS011;16120;48.608;9.092;2023-05-10T17:19:34;41.77;;;0.80;;
29026;SDS011;16120;48.608;9.092;2023-05-10T17:23:29;41.77;;;0.80;;
29026;SDS011;16120;48.608;9.092;2023-05-10T17:27:24;41.87;;;0.80;;
29026;SDS011;16120;48.608;9.092;2023-05-10T17:31:19;41.77;;;0.80;;
29026;SDS011;16120;48.608;9.092;2023-05-10T17:35:16;41.80;;;0.80;;
29026;SDS011;16120;48.608;9.092;2023-05-10T17:39:11;41.87;;;0.80;;
29026;SDS011;16120;48.608;9.092;2023-05-10T17:43:06;41.53;;;0.80;;
29026;SDS011;16120;48.608;9.092;2023-05-10T17:47:02;41.57;;;0.80;;
29026;SDS011;16120;48.608;9.092;2023-05-10T17:50:58;41.57;;;0.80;;
29026;SDS011;16120;48.608;9.092;2023-05-10T17:54:53;41.30;;;0.80;;
29026;SDS011;16120;48.608;9.092;2023-05-10T17:58:48;41.47;;;0.80;;
29026;SDS011;16120;48.608;9.092;2023-05-10T18:02:44;41.37;;;0.80;;
29026;SDS011;16120;48.608;9.092;2023-05-10T18:06:40;41.27;;;0.80;;
29026;SDS011;16120;48.608;9.092;2023-05-10T18:10:36;41.03;;;0.80;;
29026;SDS011;16120;48.608;9.092;2023-05-10T18:14:31;41.23;;;0.80;;
29026;SDS011;16120;48.608;9.092;2023-05-10T18:18:26;41.23;;;0.80;;
29026;SDS011;16120;48.608;9.092;2023-05-10T18:22:23;41.03;;;0.80;;
29026;SDS011;16120;48.608;9.092;2023-05-10T18:26:18;40.77;;;0.80;;
29026;SDS011;16120;48.608;9.092;2023-05-10T18:30:13;40.87;;;0.90;;
29026;SDS011;16120;48.608;9.092;2023-05-10T18:34:08;40.77;;;0.80;;
29026;SDS011;16120;48.608;9.092;2023-05-10T18:38:05;40.70;;;0.87;;
29026;SDS011;16120;48.608;9.092;2023-05-10T18:42:00;40.63;;;0.80;;
29026;SDS011;16120;48.608;9.092;2023-05-10T18:45:58;40.73;;;0.80;;
29026;SDS011;16120;48.608;9.092;2023-05-10T18:49:53;40.57;;;0.90;;
29026;SDS011;16120;48.608;9.092;2023-05-10T18:53:50;40.30;;;0.80;;
29026;SDS011;16120;48.608;9.092;2023-05-10T18:57:46;40.17;;;0.80;;
29026;SDS011;16120;48.608;9.092;2023-05-10T19:01:41;40.37;;;0.80;;
29026;SDS011;16120;48.608;9.092;2023-05-10T19:05:36;39.50;;;0.80;;
29026;SDS011;16120;48.608;9.092;2023-05-10T19:09:33;39.87;;;0.80;;
29026;SDS011;16120;48.608;9.092;2023-05-10T19:13:28;40.13;;;0.80;;
29026;SDS011;16120;48.608;9.092;2023-05-10T19:17:23;40.17;;;0.80;;
29026;SDS011;16120;48.608;9.092;2023-05-10T19:21:18;40.23;;;0.80;;
29026;SDS011;16120;48.608;9.092;2023-05-10T19:25:15;39.80;;;0.80;;
29026;SDS011;16120;48.608;9.092;2023-05-10T19:29:10;40.23;;;0.80;;
29026;SDS011;16120;48.608;9.092;2023-05-10T19:33:05;40.13;;;0.80;;
29026;SDS011;16120;48.608;9.092;2023-05-10T19:37:00;39.77;;;0.80;;
29026;SDS011;16120;48.608;9.092;2023-05-10T19:40:57;39.93;;;0.80;;
29026;SDS011;16120;48.608;9.092;2023-05-10T19:44:52;39.53;;;0.80;;
29026;SDS011;16120;48.608;9.092;2023-05-10T19:48:47;39.93;;;0.80;;
29026;SDS011;16120;48.608;9.092;2023-05-10T19:52:43;39.73;;;0.80;;
29026;SDS011;16120;48.608;9.092;2023-05-10T19:56:39;39.63;;;0.80;;
29026;SDS011;16120;48.608;9.092;2023-05-10T20:00:34;39.60;;;0.90;;
29026;SDS011;16120;48.608;9.092;2023-05-10T20:04:30;39.50;;;0.88;;
29026;SDS011;16120;48.608;9.092;2023-05-10T20:08:25;39.38;;;0.80;;
29026;SDS011;16120;48.608;9.092;2023-05-10T20:12:21;39.47;;;0.90;;
29026;SDS011;16120;48.608;9.092;2023-05-10T20:16:17;39.47;;;0.80;;
29026;SDS011;16120;48.608;9.092;2023-05-10T20:20:12;39.30;;;0.80;;
29026;SDS011;16120;48.608;9.092;2023-05-10T20:24:08;39.57;;;0.87;;
29026;SDS011;16120;48.608;9.092;2023-05-10T20:28:04;39.57;;;0.90;;
29026;SDS011;16120;48.608;9.092;2023-05-10T20:31:59;39.27;;;0.90;;
29026;SDS011;16120;48.608;9.092;2023-05-10T20:35:54;39.33;;;0.90;;
29026;SDS011;16120;48.608;9.092;2023-05-10T20:39:50;39.20;;;0.90;;
29026;SDS011;16120;48.608;9.092;2023-05-10T20:43:46;39.23;;;0.80;;
29026;SDS011;16120;48.608;9.092;2023-05-10T20:47:41;39.03;;;0.90;;
29026;SDS011;16120;48.608;9.092;2023-05-10T20:51:37;39.13;;;0.80;;
29026;SDS011;16120;48.608;9.092;2023-05-10T20:55:32;38.87;;;0.80;;
29026;SDS011;16120;48.608;9.092;2023-05-10T20:59:28;39.17;;;0.80;;
29026;SDS011;16120;48.608;9.092;2023-05-10T21:03:24;38.97;;;0.83;;
29026;SDS011;16120;48.608;9.092;2023-05-10T21:07:19;39.03;;;0.90;;
29026;SDS011;16120;48.608;9.092;2023-05-10T21:11:14;39.27;;;0.90;;
29026;SDS011;16120;48.608;9.092;2023-05-10T21:15:11;39.13;;;0.80;;
29026;SDS011;16120;48.608;9.092;2023-05-10T21:19:06;38.87;;;0.80;;
29026;SDS011;16120;48.608;9.092;2023-05-10T21:23:01;38.83;;;0.80;;
29026;SDS011;16120;48.608;9.092;2023-05-10T21:26:56;38.87;;;0.90;;
29026;SDS011;16120;48.608;9.092;2023-05-10T21:30:53;38.27;;;0.80;;
29026;SDS011;16120;48.608;9.092;2023-05-10T21:34:48;38.63;;;0.80;;
29026;SDS011;16120;48.608;9.092;2023-05-10T21:38:43;38.30;;;0.90;;
29026;SDS011;16120;48.608;9.092;2023-05-10T21:42:39;38.57;;;0.80;;
29026;SDS011;16120;48.608;9.092;2023-05-10T21:46:35;38.97;;;0.80;;
29026;SDS011;16120;48.608;9.092;2023-05-10T21:50:30;38.63;;;0.80;;
29026;SDS011;16120;48.608;9.092;2023-05-10T21:54:25;38.67;;;1.00;;
29026;SDS011;16120;48.608;9.092;2023-05-10T21:58:21;38.60;;;0.90;;
29026;SDS011;16120;48.608;9.092;2023-05-10T22:02:17;38.38;;;0.85;;
29026;SDS011;16120;48.608;9.092;2023-05-10T22:06:13;38.80;;;0.87;;
29026;SDS011;16120;48.608;9.092;2023-05-10T22:10:08;38.50;;;0.90;;
29026;SDS011;16120;48.608;9.092;2023-05-10T22:14:03;38.50;;;0.90;;
29026;SDS011;16120;48.608;9.092;2023-05-10T22:18:00;38.43;;;0.80;;
29026;SDS011;16120;48.608;9.092;2023-05-10T22:21:55;38.50;;;0.80;;
29026;SDS011;16120;48.608;9.092;2023-05-10T22:25:50;38.43;;;0.80;;
29026;SDS011;16120;48.608;9.092;2023-05-10T22:29:45;38.43;;;0.90;;
29026;SDS011;16120;48.608;9.092;2023-05-10T22:33:42;38.43;;;0.90;;
29026;SDS011;16120;48.608;9.092;2023-05-10T22:37:37;38.37;;;0.83;;
29026;SDS011;16120;48.608;9.092;2023-05-10T22:41:32;38.17;;;0.90;;
29026;SDS011;16120;48.608;9.092;2023-05-10T22:45:28;37.90;;;0.80;;
29026;SDS011;16120;48.608;9.092;2023-05-10T22:49:24;38.37;;;0.80;;
29026;SDS011;16120;48.608;9.092;2023-05-10T22:53:19;38.00;;;0.87;;
29026;SDS011;16120;48.608;9.092;2023-05-10T22:57:15;38.40;;;0.90;;
29026;SDS011;16120;48.608;9.092;2023-05-10T23:01:10;38.17;;;0.80;;
29026;SDS011;16120;48.608;9.092;2023-05-10T23:05:07;38.40;;;0.90;;
29026;SDS011;16120;48.608;9.092;2023-05-10T23:09:02;38.37;;;0.80;;
29026;SDS011;16120;48.608;9.092;2023-05-10T23:12:58;38.13;;;0.80;;
29026;SDS011;16120;48.608;9.092;2023-05-10T23:16:53;38.20;;;0.80;;
29026;SDS011;16120;48.608;9.092;2023-05-10T23:20:49;38.17;;;0.90;;
29026;SDS011;16120;48.608;9.092;2023-05-10T23:24:44;38.03;;;0.80;;
29026;SDS011;16120;48.608;9.092;2023-05-10T23:28:40;37.87;;;0.80;;